x

Settlement Point, Gbi (spgf1) Weather Station

11:00am - Sat 23rd Aug 2014 All times are EDT. -4 hours from GMT.

  • Wind
    6mph, 7mph gusts
  • Air Temp 85°f
  • Sea Pressure 1015.7mb
  • Settlement Point, Gbi
  • Settlement Point, Gbi

More Historic Weather Station data

Upgrade to MSW Pro to gain access to the past 30 days of data for over 8000 Wavebouys and Weather Stations around the globe.

Join Pro

Comparision Forecast

View Surf forecast
   
Sat 08/23 11:00am 6 7 mph 1015.7mb 85f
10:00am 5
mph
1015.7mb 85f
9:00am 2
mph
1015.4mb 85f
8:00am 3 5 mph 1015.3mb 83f
7:00am 5 7 mph 1015mb 82f
6:00am 6 8 mph 1015mb 82f
5:00am 7
mph
1014.9mb 82f
4:00am 7
mph
1015mb 82f
3:00am 8 9 mph 1015.3mb 83f
2:00am 5 6 mph 1015.8mb 83f
1:00am 6 7 mph 1016.2mb 83f
12:00am 7 8 mph 1016.8mb 84f
Fri 08/22 11:00pm 7 9 mph 1017.5mb 84f
10:00pm 7 9 mph 1017.3mb 84f
9:00pm 7 8 mph 1017.3mb 86f
8:00pm 10 11 mph 1016.8mb 85f
7:00pm 9 11 mph 1016.7mb 86f
6:00pm 6 7 mph 1016.6mb 86f
5:00pm 7 8 mph 1017mb 86f
4:00pm 6 7 mph 1017.4mb 85f
3:00pm 6 7 mph 1017.9mb 85f
2:00pm 3 5 mph 1018.5mb 86f
1:00pm 2 3 mph 1019.2mb 86f
12:00pm 6 7 mph 1019.5mb 85f
11:00am 3 6 mph 1019.6mb 85f
10:00am 3 6 mph 1019.5mb 85f
9:00am 6 7 mph 1019.2mb 85f
8:00am 6 7 mph 1018.9mb 84f
7:00am 6
mph
1018.5mb 82f
6:00am 7 9 mph 1018.1mb 82f
5:00am 5 6 mph 1018mb 82f
4:00am 8 10 mph 1018.4mb 82f
3:00am 7 8 mph 1018.9mb 83f
2:00am 7 8 mph 1019.6mb 83f
1:00am 6 7 mph 1020.2mb 83f
12:00am 7 8 mph 1020.4mb 83f
Thu 08/21 11:00pm 6 7 mph 1020.6mb 84f
10:00pm 3 5 mph 1020.3mb 84f
9:00pm 3 5 mph 1019.5mb 84f
8:00pm 5
mph
1018.9mb 85f
7:00pm 5 6 mph 1019.1mb 86f
6:00pm 6 7 mph 1019.2mb 85f
5:00pm 1 2 mph 1019.1mb 87f
4:00pm 9 11 mph 1019.5mb 86f
3:00pm 8 10 mph 1019.8mb 86f
2:00pm 9 11 mph 1020.6mb 83f
1:00pm 7 8 mph 1021mb 84f
12:00pm 6
mph
1021mb 86f
11:00am 6 8 mph 1020.9mb 86f
10:00am 6 8 mph 1020.9mb 86f
9:00am 5 7 mph 1020.7mb 86f
8:00am 3 5 mph 1020.2mb 85f
7:00am 5
mph
1019.5mb 83f
6:00am 6 7 mph 1019mb 82f
5:00am 6
mph
1018.8mb 82f
4:00am 6 7 mph 1019mb 83f
3:00am 5 6 mph 1019.4mb 83f
2:00am 5 6 mph 1019.8mb 83f
1:00am 6
mph
1020mb 83f
12:00am 6 7 mph 1020.4mb 83f
Wed 08/20 11:00pm 6 7 mph 1020.1mb 84f
10:00pm 6
mph
1019.8mb 85f
9:00pm 5 6 mph 1019.4mb 86f
8:00pm 5 6 mph 1018.7mb 85f
7:00pm 6
mph
1018.5mb 86f
6:00pm 5 7 mph 1018.8mb 86f
5:00pm 3
mph
1018.9mb 86f
4:00pm 3 5 mph 1018.9mb 86f
3:00pm 3 5 mph 1019.1mb 86f
2:00pm 3 5 mph 1019.2mb 87f
1:00pm 3 5 mph 1019.3mb 86f
12:00pm 2 3 mph 1019.5mb 87f
11:00am 5
mph
1019.8mb 86f
10:00am 5 6 mph 1019.4mb 85f
9:00am 5 6 mph 1019.2mb 85f
8:00am 5 6 mph 1018.5mb 85f
7:00am 6 7 mph 1017.6mb 84f
6:00am 7
mph
1017.1mb 85f
5:00am 6 7 mph 1016.8mb 84f
4:00am 6 7 mph 1016.7mb 84f
3:00am 6 7 mph 1016.9mb 84f
2:00am 7 8 mph 1016.9mb 84f
1:00am 7 8 mph 1017.4mb 83f
12:00am 6 7 mph 1017.9mb 84f
Tue 08/19 11:00pm 7 9 mph 1017.8mb 85f
10:00pm 7
mph
1017.3mb 85f
9:00pm 5 6 mph 1017.1mb 86f
8:00pm 5 6 mph 1016.5mb 86f
7:00pm 5 6 mph 1016.4mb 86f
6:00pm 3 5 mph 1016.3mb 87f
5:00pm 2
mph
1016mb 87f